Información del aeropuerto SCVD

Información de pista
Pista 17 Longitud 6870 ft Anchura 148 ft
Elevación 59 ft Umbral 0 ft Rumbo 178
Pista 35 Longitud 6870 ft Anchura 148 ft
Elevación 54 ft Umbral 0 ft Rumbo 358
Frecuencias del aeropuerto
Tipo INFO Nombre AFIS Frecuencia 127.7 MHZ
Radioayudas del aeropuerto
Tipo VOR-DME Nombre Valdivia Frecuencia 114500 KHZ
Tipo NDB Nombre Valdivia Frecuencia 208 KHZ
Información meteorológica del aeropuerto y NOTAM
ADDS - METARS form results

(1254 UTC 16 October 2021)
Data provider http://aviationweather.gov/metar/data/
 
METAR text: SCVD 161230Z VRB01KT 3100 -RA OVC004 08/08 Q1026
Conditions at: SCVD (VALDIVIA/PICHOY , CL) observed 1230 UTC 16 October 2021
Temperature: 8.0°C (46°F)
Dewpoint: 8.0°C (46°F) [RH = 100%]
Pressure (altimeter): 30.30 inches Hg (1026.0 mb)
Winds: variable direction winds at 1 MPH (1 knots; 0.5 m/s)
Visibility: 1.93 miles (3.11 km)
Ceiling: 400 feet AGL
Clouds: overcast cloud deck at 400 feet AGL
Weather: -RA  (light rain)

METAR text: SCVD 161200Z VRB01KT 8000 VCFG OVC003 07/07 Q1026
Conditions at: SCVD (VALDIVIA/PICHOY , CL) observed 1200 UTC 16 October 2021
Temperature: 7.0°C (45°F)
Dewpoint: 7.0°C (45°F) [RH = 100%]
Pressure (altimeter): 30.30 inches Hg (1026.0 mb)
Winds: variable direction winds at 1 MPH (1 knots; 0.5 m/s)
Visibility: 5 miles ( 8 km)
Ceiling: 300 feet AGL
Clouds: overcast cloud deck at 300 feet AGL
Weather: VCFG  (fog in vicinity)